Time;durP1;ratioP1;P1;durP2;ratioP2;P2;SDS_P1;SDS_P2;PMS_P1;PMS_P2;Temp;Humidity;BMP_temperature;BMP_pressure;BME280_temperature;BME280_humidity;BME280_pressure;Samples;Min_cycle;Max_cycle;Signal;HPM_P1;HPM_P2
2023/11/04 00:00:18;;;;;;;3.80;1.75;;;5.60;85.30;;;;;;5095036;28;20182;-75
2023/11/04 00:02:45;;;;;;;2.78;1.45;;;5.60;85.40;;;;;;5094845;28;20627;-75
2023/11/04 00:05:12;;;;;;;3.72;2.00;;;5.60;85.30;;;;;;5093388;28;20205;-75
2023/11/04 00:07:39;;;;;;;3.38;1.20;;;5.70;85.20;;;;;;5094656;28;20234;-75
2023/11/04 00:10:08;;;;;;;4.38;1.92;;;5.70;85.30;;;;;;5094101;28;20189;-74
2023/11/04 00:12:35;;;;;;;5.60;2.25;;;5.60;85.20;;;;;;5094627;28;20276;-75
2023/11/04 00:15:01;;;;;;;3.50;1.67;;;5.60;85.20;;;;;;5094944;28;20190;-75
2023/11/04 00:17:30;;;;;;;4.22;2.40;;;5.60;85.70;;;;;;5094706;28;20235;-75
2023/11/04 00:19:57;;;;;;;2.45;1.45;;;5.50;85.90;;;;;;5094344;28;20805;-75
2023/11/04 00:22:26;;;;;;;4.18;2.13;;;5.50;86.00;;;;;;5094584;28;20186;-75
2023/11/04 00:24:54;;;;;;;3.67;1.90;;;5.50;86.10;;;;;;5094456;28;20206;-75
2023/11/04 00:27:21;;;;;;;3.42;1.85;;;5.50;85.70;;;;;;5094376;28;20276;-75
2023/11/04 00:29:48;;;;;;;2.35;1.60;;;5.50;85.90;;;;;;5094319;28;20185;-75
2023/11/04 00:32:15;;;;;;;4.13;1.90;;;5.40;86.30;;;;;;5094860;28;20581;-75
2023/11/04 00:34:44;;;;;;;4.13;1.80;;;5.40;86.70;;;;;;5094360;28;20232;-75
2023/11/04 00:37:11;;;;;;;2.83;1.45;;;5.30;86.70;;;;;;5094382;28;20243;-75
2023/11/04 00:39:38;;;;;;;7.57;1.60;;;5.30;86.80;;;;;;5094379;28;20182;-75
2023/11/04 00:42:05;;;;;;;4.25;1.50;;;5.30;86.60;;;;;;5093903;28;20189;-75
2023/11/04 00:44:32;;;;;;;2.60;1.25;;;5.20;86.50;;;;;;5094348;28;20263;-75
2023/11/04 00:46:59;;;;;;;3.08;1.80;;;5.20;86.70;;;;;;5094484;28;20555;-75
2023/11/04 00:49:40;;;;;;;4.65;1.65;;;5.10;86.60;;;;;;5094235;28;20196;-75
2023/11/04 00:52:10;;;;;;;3.60;2.95;;;5.10;86.00;;;;;;5094092;28;20628;-75
2023/11/04 00:54:37;;;;;;;3.00;1.40;;;5.10;85.70;;;;;;5094027;28;20201;-75
2023/11/04 00:57:04;;;;;;;3.65;1.98;;;5.00;86.00;;;;;;5093988;28;20193;-75
2023/11/04 00:59:31;;;;;;;3.22;1.75;;;5.00;86.50;;;;;;5092906;28;20551;-75
2023/11/04 01:01:58;;;;;;;2.95;1.58;;;5.00;87.20;;;;;;5093266;28;20246;-75
2023/11/04 01:04:25;;;;;;;3.53;1.67;;;5.00;87.80;;;;;;5093948;28;20259;-75
2023/11/04 01:06:55;;;;;;;3.10;1.60;;;5.10;88.00;;;;;;5093850;28;20277;-75
2023/11/04 01:09:23;;;;;;;3.17;1.48;;;5.10;88.20;;;;;;5093002;28;20590;-75
2023/11/04 01:11:50;;;;;;;4.20;2.00;;;5.10;88.10;;;;;;5093686;28;20193;-76
2023/11/04 01:14:17;;;;;;;3.03;1.80;;;5.10;88.30;;;;;;5093972;28;20232;-75
2023/11/04 01:16:46;;;;;;;2.55;1.50;;;5.10;88.00;;;;;;5094030;28;20200;-75
2023/11/04 01:19:13;;;;;;;2.35;1.40;;;5.10;87.70;;;;;;5090800;28;20240;-75
2023/11/04 01:21:42;;;;;;;2.92;1.95;;;5.00;88.10;;;;;;5093966;28;20230;-75
2023/11/04 01:24:09;;;;;;;3.60;1.88;;;5.00;88.20;;;;;;5093441;28;20217;-75
2023/11/04 01:26:39;;;;;;;2.95;1.65;;;5.00;88.40;;;;;;5094009;28;20625;-74
2023/11/04 01:29:05;;;;;;;3.80;1.83;;;5.00;88.70;;;;;;5093065;28;20524;-75
2023/11/04 01:31:32;;;;;;;3.33;1.88;;;5.10;88.90;;;;;;5093833;28;20543;-75
2023/11/04 01:34:00;;;;;;;4.25;1.75;;;5.10;89.30;;;;;;5093468;28;20276;-75
2023/11/04 01:36:28;;;;;;;3.53;1.73;;;5.10;89.30;;;;;;5093218;28;20193;-74
2023/11/04 01:38:55;;;;;;;3.25;1.60;;;5.20;89.30;;;;;;5093330;28;20188;-75
2023/11/04 01:41:25;;;;;;;3.15;1.50;;;5.20;88.90;;;;;;5093394;28;20274;-75
2023/11/04 01:43:53;;;;;;;2.90;1.40;;;5.20;88.30;;;;;;5092790;28;20196;-75
2023/11/04 01:46:24;;;;;;;3.42;1.50;;;5.20;87.90;;;;;;5093508;28;20220;-75
2023/11/04 01:48:51;;;;;;;2.97;1.55;;;5.20;87.30;;;;;;5093532;28;20178;-75
2023/11/04 01:51:19;;;;;;;3.30;1.52;;;5.20;87.50;;;;;;5093665;28;20197;-75
2023/11/04 01:53:49;;;;;;;2.78;1.30;;;5.10;86.20;;;;;;5093304;28;20197;-75
2023/11/04 01:56:21;;;;;;;2.30;1.10;;;5.10;86.40;;;;;;5093318;28;20196;-75
2023/11/04 01:58:54;;;;;;;2.50;1.33;;;5.00;87.40;;;;;;5093096;28;20189;-75
2023/11/04 02:01:24;;;;;;;3.13;1.33;;;4.90;86.70;;;;;;5093586;28;20182;-75
2023/11/04 02:03:53;;;;;;;2.72;1.55;;;4.80;87.10;;;;;;5093469;28;20243;-75
2023/11/04 02:06:20;;;;;;;2.30;1.05;;;4.90;87.90;;;;;;5093384;28;20240;-75
2023/11/04 02:08:47;;;;;;;2.72;1.73;;;4.80;86.60;;;;;;5093146;28;20194;-75
2023/11/04 02:11:14;;;;;;;3.00;1.45;;;4.80;87.00;;;;;;5093263;28;20186;-75
2023/11/04 02:13:41;;;;;;;3.25;1.02;;;4.80;87.30;;;;;;5093599;28;20239;-75
2023/11/04 02:16:23;;;;;;;2.70;1.48;;;4.70;87.30;;;;;;5093345;28;20194;-75
2023/11/04 02:18:53;;;;;;;2.53;1.35;;;4.70;87.40;;;;;;5093434;28;20246;-74
2023/11/04 02:21:22;;;;;;;3.40;2.17;;;4.60;87.70;;;;;;5093422;28;20249;-75
2023/11/04 02:23:52;;;;;;;3.13;1.50;;;4.60;88.40;;;;;;5097224;28;20189;-75
2023/11/04 02:26:19;;;;;;;3.05;1.50;;;4.60;88.80;;;;;;5097092;28;20218;-75
2023/11/04 02:28:46;;;;;;;3.33;1.67;;;4.70;89.40;;;;;;5096369;28;20219;-75
2023/11/04 02:31:13;;;;;;;2.92;1.60;;;4.70;89.80;;;;;;5095158;28;20232;-75
2023/11/04 02:33:41;;;;;;;2.92;1.55;;;4.60;89.90;;;;;;5096944;28;20242;-74
2023/11/04 02:36:08;;;;;;;2.40;1.08;;;4.60;88.70;;;;;;5096948;28;20229;-75
2023/11/04 02:38:37;;;;;;;3.03;1.65;;;4.50;88.40;;;;;;5096898;28;20185;-75
2023/11/04 02:41:04;;;;;;;2.90;1.38;;;4.40;88.60;;;;;;5096496;28;20231;-74
2023/11/04 02:43:32;;;;;;;3.75;1.23;;;4.40;88.40;;;;;;5096425;28;20278;-74
2023/11/04 02:45:59;;;;;;;2.75;1.50;;;4.30;88.10;;;;;;5096666;28;20221;-74
2023/11/04 02:48:26;;;;;;;4.70;1.30;;;4.30;88.10;;;;;;5096340;28;20205;-74
2023/11/04 02:50:53;;;;;;;5.25;1.45;;;4.30;87.50;;;;;;5096353;28;20258;-74
2023/11/04 02:53:20;;;;;;;3.53;1.23;;;4.20;87.80;;;;;;5093786;28;20186;-74
2023/11/04 02:55:48;;;;;;;2.85;1.30;;;4.20;88.10;;;;;;5097299;28;20629;-74
2023/11/04 02:58:15;;;;;;;2.92;1.50;;;4.20;88.00;;;;;;5096462;28;20194;-74
2023/11/04 03:00:42;;;;;;;2.70;1.52;;;4.20;87.70;;;;;;5095529;28;20220;-74
2023/11/04 03:03:09;;;;;;;2.70;1.30;;;4.10;88.10;;;;;;5096107;28;20186;-74
2023/11/04 03:05:36;;;;;;;3.00;1.90;;;4.20;88.60;;;;;;5096012;28;20249;-74
2023/11/04 03:08:03;;;;;;;2.28;1.10;;;4.20;88.00;;;;;;5096076;28;20713;-74
2023/11/04 03:10:30;;;;;;;4.10;1.95;;;4.20;87.40;;;;;;5096292;28;20239;-74
2023/11/04 03:12:59;;;;;;;3.72;2.22;;;4.30;87.60;;;;;;5095721;28;20197;-74
2023/11/04 03:15:26;;;;;;;3.10;1.63;;;4.20;87.80;;;;;;5096370;28;20193;-74
2023/11/04 03:17:53;;;;;;;3.55;2.15;;;4.30;88.70;;;;;;5096172;28;20294;-74
2023/11/04 03:20:23;;;;;;;3.58;1.63;;;4.30;89.20;;;;;;5096152;28;20221;-74
2023/11/04 03:22:50;;;;;;;3.55;1.52;;;4.30;89.90;;;;;;5095730;28;20186;-74
2023/11/04 03:25:19;;;;;;;4.30;1.95;;;4.40;89.40;;;;;;5095995;28;20217;-74
2023/11/04 03:27:46;;;;;;;4.35;1.40;;;4.40;89.30;;;;;;5095589;28;20204;-75
2023/11/04 03:30:15;;;;;;;3.25;1.40;;;4.40;89.10;;;;;;5095532;28;20189;-74
2023/11/04 03:32:42;;;;;;;2.20;1.08;;;4.40;88.60;;;;;;5095386;28;20189;-74
2023/11/04 03:35:10;;;;;;;2.05;0.93;;;4.40;87.80;;;;;;5095765;28;20193;-74
2023/11/04 03:37:37;;;;;;;2.60;1.10;;;4.40;87.70;;;;;;5095725;28;20220;-74
2023/11/04 03:40:05;;;;;;;2.90;1.02;;;4.30;87.80;;;;;;5095486;28;20693;-74
2023/11/04 03:42:36;;;;;;;1.90;0.82;;;4.30;88.20;;;;;;5094966;28;20185;-75
2023/11/04 03:45:04;;;;;;;2.65;1.10;;;4.30;88.60;;;;;;5095202;28;20201;-74
2023/11/04 03:47:32;;;;;;;4.03;1.08;;;4.30;88.80;;;;;;5095553;28;20186;-74
2023/11/04 03:49:59;;;;;;;2.70;1.05;;;4.30;88.70;;;;;;5095209;28;20189;-74
2023/11/04 03:52:26;;;;;;;2.20;0.95;;;4.30;88.60;;;;;;5095063;28;20709;-74
2023/11/04 03:54:53;;;;;;;2.45;1.10;;;4.20;88.70;;;;;;5095494;28;20190;-74
2023/11/04 03:57:20;;;;;;;2.22;1.10;;;4.20;89.30;;;;;;5095316;28;20274;-74
2023/11/04 03:59:51;;;;;;;2.72;1.45;;;4.20;88.90;;;;;;5095303;28;20193;-75
2023/11/04 04:02:21;;;;;;;4.43;1.55;;;4.20;89.20;;;;;;5095248;28;20181;-74
2023/11/04 04:04:49;;;;;;;3.35;1.90;;;4.20;89.30;;;;;;5094521;28;20238;-74
2023/11/04 04:07:16;;;;;;;3.85;2.05;;;4.20;89.40;;;;;;5094788;28;20709;-74
2023/11/04 04:09:43;;;;;;;3.83;1.98;;;4.10;89.10;;;;;;5095121;28;20254;-74
2023/11/04 04:12:10;;;;;;;2.85;1.90;;;4.10;89.40;;;;;;5094868;28;20186;-74
2023/11/04 04:14:37;;;;;;;3.63;1.20;;;4.10;89.30;;;;;;5094728;28;20689;-75
2023/11/04 04:17:04;;;;;;;3.88;2.00;;;4.10;89.60;;;;;;5094648;28;20215;-74
2023/11/04 04:19:31;;;;;;;41.45;28.48;;;4.10;89.50;;;;;;5094870;28;20263;-74
2023/11/04 04:21:59;;;;;;;11.60;8.30;;;4.10;89.40;;;;;;5094110;28;20224;-74
2023/11/04 04:24:26;;;;;;;4.75;1.70;;;4.10;89.50;;;;;;5094588;28;20232;-74
2023/11/04 04:26:53;;;;;;;2.80;1.40;;;4.10;89.80;;;;;;5094432;28;20260;-74
2023/11/04 04:29:23;;;;;;;2.80;1.40;;;4.10;89.20;;;;;;5094371;28;20225;-74
2023/11/04 04:31:51;;;;;;;3.00;1.35;;;4.20;88.00;;;;;;5094283;28;20708;-74
2023/11/04 04:34:18;;;;;;;3.58;2.30;;;4.20;87.70;;;;;;5094405;28;20229;-74
2023/11/04 04:36:51;;;;;;;4.97;3.80;;;4.10;88.10;;;;;;5095062;28;20210;-74
2023/11/04 04:39:19;;;;;;;4.55;1.95;;;4.10;88.20;;;;;;5094496;28;20235;-74
2023/11/04 04:41:46;;;;;;;4.32;2.40;;;4.10;87.70;;;;;;5094644;28;20197;-74
2023/11/04 04:44:13;;;;;;;3.80;2.08;;;3.90;87.90;;;;;;5093355;28;20713;-74
2023/11/04 04:46:40;;;;;;;3.85;2.08;;;3.90;88.40;;;;;;5094076;28;20262;-74
2023/11/04 04:49:08;;;;;;;3.10;1.50;;;3.90;89.00;;;;;;5094525;28;20591;-74
2023/11/04 04:51:36;;;;;;;2.80;1.60;;;3.90;89.30;;;;;;5094307;28;20196;-74
2023/11/04 04:54:03;;;;;;;11.60;10.50;;;3.90;89.20;;;;;;5094069;28;20190;-74
2023/11/04 04:56:31;;;;;;;10.93;5.90;;;3.90;89.30;;;;;;5094031;28;20707;-74
2023/11/04 04:58:58;;;;;;;5.22;3.20;;;3.90;88.50;;;;;;5093664;28;20675;-74
2023/11/04 05:01:25;;;;;;;2.70;1.60;;;3.90;89.20;;;;;;5093901;28;20306;-74
2023/11/04 05:03:53;;;;;;;2.63;1.30;;;3.90;88.10;;;;;;5093925;28;20567;-75
2023/11/04 05:06:20;;;;;;;3.72;2.22;;;3.80;88.40;;;;;;5094063;28;20262;-74
2023/11/04 05:08:47;;;;;;;4.45;3.30;;;3.80;89.50;;;;;;5093784;28;20655;-74
2023/11/04 05:11:15;;;;;;;3.70;2.80;;;3.80;89.20;;;;;;5093276;28;20189;-74
2023/11/04 05:13:43;;;;;;;4.03;3.10;;;3.70;89.00;;;;;;5093631;28;20209;-74
2023/11/04 05:16:10;;;;;;;3.30;2.50;;;3.70;89.40;;;;;;5093414;28;20235;-74
2023/11/04 05:18:38;;;;;;;2.90;1.80;;;3.80;89.80;;;;;;5093699;28;20218;-74
2023/11/04 05:21:05;;;;;;;2.50;1.35;;;3.70;88.80;;;;;;5093795;28;20298;-74
2023/11/04 05:23:35;;;;;;;2.55;1.50;;;3.70;89.00;;;;;;5093586;28;20736;-74
2023/11/04 05:26:02;;;;;;;3.97;2.78;;;3.60;89.40;;;;;;5093387;28;20205;-74
2023/11/04 05:28:31;;;;;;;3.13;1.40;;;3.70;89.80;;;;;;5093707;28;20197;-74
2023/11/04 05:31:00;;;;;;;2.30;1.30;;;3.70;89.40;;;;;;5093048;28;20190;-74
2023/11/04 05:33:27;;;;;;;3.15;1.40;;;3.70;89.10;;;;;;5094081;28;20197;-74
2023/11/04 05:35:54;;;;;;;2.80;1.40;;;3.60;89.30;;;;;;5093756;28;20189;-74
2023/11/04 05:38:23;;;;;;;3.45;1.73;;;3.60;89.60;;;;;;5093881;28;20203;-74
2023/11/04 05:40:50;;;;;;;4.55;2.60;;;3.60;90.00;;;;;;5093436;28;20631;-74
2023/11/04 05:43:17;;;;;;;2.70;1.33;;;3.60;90.10;;;;;;5093485;28;20720;-74
2023/11/04 05:45:44;;;;;;;3.08;1.17;;;3.60;90.20;;;;;;5093000;28;20255;-74
2023/11/04 05:48:12;;;;;;;2.35;1.20;;;3.60;90.20;;;;;;5093739;28;20235;-74
2023/11/04 05:50:39;;;;;;;5.20;1.20;;;3.50;89.80;;;;;;5093141;28;20220;-74
2023/11/04 05:53:06;;;;;;;2.40;1.05;;;3.50;89.40;;;;;;5093679;28;20250;-74
2023/11/04 05:55:33;;;;;;;4.18;1.50;;;3.50;88.90;;;;;;5093793;28;20243;-74
2023/11/04 05:58:01;;;;;;;2.00;1.10;;;3.40;88.40;;;;;;5097294;28;20240;-74
2023/11/04 06:00:28;;;;;;;4.90;2.03;;;3.40;88.20;;;;;;5097033;28;20192;-74
2023/11/04 06:02:55;;;;;;;2.70;1.80;;;3.30;87.90;;;;;;5097598;28;20190;-74
2023/11/04 06:05:23;;;;;;;4.75;2.58;;;3.30;88.30;;;;;;5097453;28;20239;-74
2023/11/04 06:07:51;;;;;;;4.68;2.63;;;3.30;88.30;;;;;;5096509;28;20276;-74
2023/11/04 06:10:18;;;;;;;4.07;2.20;;;3.30;88.50;;;;;;5096514;28;20609;-74
2023/11/04 06:12:45;;;;;;;3.85;2.00;;;3.20;89.20;;;;;;5097054;28;20278;-74
2023/11/04 06:15:12;;;;;;;4.75;2.65;;;3.30;89.80;;;;;;5096838;28;20599;-74
2023/11/04 06:17:39;;;;;;;5.00;1.95;;;3.30;90.10;;;;;;5097129;28;20239;-74
2023/11/04 06:20:08;;;;;;;2.95;1.80;;;3.30;90.20;;;;;;5096553;28;20217;-74
2023/11/04 06:22:39;;;;;;;4.18;2.10;;;3.40;90.20;;;;;;5096975;28;20201;-75
2023/11/04 06:25:07;;;;;;;3.70;1.95;;;3.40;90.20;;;;;;5097107;28;20247;-74
2023/11/04 06:27:34;;;;;;;3.22;1.98;;;3.60;90.10;;;;;;5096836;28;20213;-74
2023/11/04 06:30:01;;;;;;;3.80;2.17;;;3.80;90.10;;;;;;5096600;28;20231;-74
2023/11/04 06:32:28;;;;;;;5.47;3.63;;;4.10;90.00;;;;;;5096738;28;20201;-75
2023/11/04 06:34:55;;;;;;;4.47;2.03;;;4.30;89.90;;;;;;5096813;28;20247;-74
2023/11/04 06:37:22;;;;;;;5.35;2.65;;;4.40;89.00;;;;;;5096867;28;20194;-74
2023/11/04 06:39:50;;;;;;;5.82;4.10;;;4.70;88.30;;;;;;5095994;28;20250;-74
2023/11/04 06:42:18;;;;;;;7.30;3.92;;;4.90;87.70;;;;;;5095972;28;20235;-75
2023/11/04 06:44:45;;;;;;;9.02;4.88;;;5.20;86.90;;;;;;5094457;28;20282;-75
2023/11/04 06:47:12;;;;;;;4.75;3.30;;;5.50;85.50;;;;;;5095918;28;20316;-75
2023/11/04 06:49:40;;;;;;;5.50;3.80;;;5.70;81.80;;;;;;5095257;28;20194;-76
2023/11/04 06:52:07;;;;;;;5.65;3.33;;;6.00;80.30;;;;;;5095626;28;20280;-76
2023/11/04 06:54:34;;;;;;;6.20;3.38;;;6.20;79.40;;;;;;5095344;28;20189;-75
2023/11/04 06:57:03;;;;;;;6.32;3.58;;;6.40;79.00;;;;;;5095513;28;20224;-75
2023/11/04 06:59:30;;;;;;;5.40;3.25;;;6.60;78.00;;;;;;5095697;28;20185;-75
2023/11/04 07:01:57;;;;;;;7.53;3.92;;;6.90;77.80;;;;;;5095361;28;20182;-75
2023/11/04 07:04:24;;;;;;;4.10;2.42;;;7.20;76.90;;;;;;5095592;28;20200;-75
2023/11/04 07:06:51;;;;;;;7.50;3.13;;;7.40;76.20;;;;;;5095087;28;20210;-76
2023/11/04 07:09:19;;;;;;;6.80;3.00;;;7.70;75.00;;;;;;5094568;28;20257;-76
2023/11/04 07:11:46;;;;;;;5.45;3.10;;;7.90;73.90;;;;;;5095094;28;20235;-75
2023/11/04 07:14:16;;;;;;;6.78;3.20;;;8.20;73.00;;;;;;5095294;28;20193;-75
2023/11/04 07:16:44;;;;;;;6.18;3.90;;;8.50;71.70;;;;;;5095527;28;20544;-76
2023/11/04 07:19:12;;;;;;;5.25;3.92;;;8.80;70.10;;;;;;5093620;28;20185;-76
2023/11/04 07:21:41;;;;;;;4.13;2.78;;;9.10;69.60;;;;;;5094954;28;20214;-76
2023/11/04 07:24:16;;;;;;;7.47;3.42;;;9.40;67.20;;;;;;5094829;28;20204;-76
2023/11/04 07:26:45;;;;;;;5.20;3.47;;;9.60;65.80;;;;;;5094745;28;20197;-76
2023/11/04 07:29:11;;;;;;;5.53;4.50;;;10.00;61.70;;;;;;5094753;28;20192;-76
2023/11/04 07:31:40;;;;;;;7.53;4.25;;;10.30;60.20;;;;;;5095220;28;20189;-76
2023/11/04 07:34:07;;;;;;;6.10;4.57;;;10.50;60.30;;;;;;5094752;28;20232;-76
2023/11/04 07:36:34;;;;;;;6.68;5.43;;;10.80;59.70;;;;;;5094881;28;20274;-76
2023/11/04 07:39:02;;;;;;;6.65;5.78;;;11.10;59.20;;;;;;5094711;28;20189;-76
2023/11/04 07:41:29;;;;;;;7.00;4.97;;;11.40;58.00;;;;;;5094882;28;20228;-76
2023/11/04 07:43:57;;;;;;;8.55;5.10;;;11.80;57.60;;;;;;5094480;28;20225;-76
2023/11/04 07:46:24;;;;;;;5.77;4.17;;;12.10;56.50;;;;;;5094367;28;20294;-76
2023/11/04 07:48:52;;;;;;;5.33;3.03;;;12.40;55.90;;;;;;5094557;28;20500;-76
2023/11/04 07:51:19;;;;;;;8.10;2.63;;;12.60;54.70;;;;;;5094735;28;20462;-76
2023/11/04 07:53:46;;;;;;;5.30;2.70;;;12.90;54.10;;;;;;5094744;28;20435;-76
2023/11/04 07:56:13;;;;;;;4.20;2.40;;;13.20;54.10;;;;;;5091377;28;20524;-76
2023/11/04 07:58:40;;;;;;;3.50;2.10;;;13.50;53.20;;;;;;5094596;28;20440;-76
2023/11/04 08:01:07;;;;;;;4.07;2.40;;;13.80;52.00;;;;;;5093678;28;20442;-77
2023/11/04 08:03:34;;;;;;;3.93;2.60;;;14.20;51.00;;;;;;5081459;28;20427;-76
2023/11/04 08:06:03;;;;;;;4.33;2.30;;;14.50;50.30;;;;;;5093889;28;20439;-77
2023/11/04 08:08:32;;;;;;;4.53;2.60;;;14.80;49.40;;;;;;5093078;28;20439;-77
2023/11/04 08:10:59;;;;;;;3.40;2.20;;;15.10;49.00;;;;;;5094361;28;20431;-77
2023/11/04 08:13:28;;;;;;;2.93;1.83;;;15.50;47.20;;;;;;5093839;28;20436;-77
2023/11/04 08:15:55;;;;;;;3.47;1.60;;;15.90;45.30;;;;;;5093935;28;20431;-77
2023/11/04 08:18:30;;;;;;;3.27;2.53;;;16.20;43.90;;;;;;5093683;28;20436;-77
2023/11/04 08:20:57;;;;;;;2.53;1.33;;;16.40;44.10;;;;;;5093640;28;20520;-77
2023/11/04 08:23:26;;;;;;;4.20;1.90;;;16.80;43.40;;;;;;5093871;28;20442;-77
2023/11/04 08:25:53;;;;;;;3.50;1.90;;;17.10;41.60;;;;;;5093797;28;20467;-76
2023/11/04 08:28:20;;;;;;;3.47;2.17;;;17.60;41.20;;;;;;5093905;28;20467;-76
2023/11/04 08:30:47;;;;;;;3.20;1.63;;;17.90;39.00;;;;;;5093622;28;20752;-77
2023/11/04 08:33:14;;;;;;;4.30;2.47;;;18.30;39.00;;;;;;5093984;28;20434;-77
2023/11/04 08:35:43;;;;;;;2.60;1.20;;;18.60;37.20;;;;;;5094132;28;20445;-77
2023/11/04 08:38:10;;;;;;;3.60;2.20;;;18.80;35.30;;;;;;5093527;28;20949;-77
2023/11/04 08:40:40;;;;;;;2.27;0.90;;;19.00;34.40;;;;;;5093723;28;20478;-77
2023/11/04 08:43:07;;;;;;;3.63;1.30;;;19.30;34.70;;;;;;5093298;28;20436;-77
2023/11/04 08:45:34;;;;;;;2.20;0.80;;;19.60;34.60;;;;;;5093944;28;20512;-78
2023/11/04 08:48:02;;;;;;;2.43;0.90;;;19.90;33.60;;;;;;5093167;28;21023;-78
2023/11/04 08:50:30;;;;;;;2.00;0.80;;;20.30;31.70;;;;;;5092422;28;20431;-78
2023/11/04 08:52:59;;;;;;;2.40;0.83;;;20.40;30.10;;;;;;5093239;28;20772;-78
2023/11/04 08:55:26;;;;;;;2.30;0.80;;;20.60;30.70;;;;;;5073022;28;20432;-78
2023/11/04 08:57:55;;;;;;;2.70;1.37;;;20.80;31.00;;;;;;5072961;28;20424;-78
2023/11/04 09:00:28;;;;;;;2.63;0.83;;;21.10;29.80;;;;;;5073259;28;20826;-78
2023/11/04 09:02:55;;;;;;;2.00;0.77;;;21.30;29.30;;;;;;5085612;28;20835;-77
2023/11/04 09:05:23;;;;;;;2.00;0.70;;;21.60;30.00;;;;;;5093332;28;20838;-78
2023/11/04 09:07:51;;;;;;;2.00;0.60;;;21.80;29.20;;;;;;5093168;28;20568;-78
2023/11/04 09:10:19;;;;;;;2.10;0.70;;;22.20;28.40;;;;;;5092912;28;20423;-78
2023/11/04 09:12:46;;;;;;;2.17;0.63;;;22.50;27.00;;;;;;5091854;28;20942;-78
2023/11/04 09:15:15;;;;;;;2.07;0.70;;;22.90;27.60;;;;;;5092835;28;20443;-77
2023/11/04 09:17:42;;;;;;;1.90;0.60;;;23.40;26.50;;;;;;5092906;28;20998;-77
2023/11/04 09:20:10;;;;;;;2.83;0.60;;;23.70;24.80;;;;;;5093228;28;20555;-76
2023/11/04 09:22:37;;;;;;;1.80;0.57;;;24.20;24.10;;;;;;5093071;28;20508;-76
2023/11/04 09:25:05;;;;;;;1.97;0.70;;;24.70;23.40;;;;;;5093181;28;20431;-77
2023/11/04 09:27:32;;;;;;;2.00;0.70;;;24.70;23.00;;;;;;5093070;28;20552;-76
2023/11/04 09:29:59;;;;;;;1.90;0.80;;;25.30;23.10;;;;;;5091618;28;20439;-77
2023/11/04 09:32:28;;;;;;;1.90;0.70;;;26.00;23.30;;;;;;5092397;28;20996;-77
2023/11/04 09:34:56;;;;;;;2.57;0.80;;;26.10;22.30;;;;;;5092616;28;20492;-76
2023/11/04 09:37:23;;;;;;;2.10;0.60;;;27.00;21.80;;;;;;5092992;28;20450;-76
2023/11/04 09:39:51;;;;;;;2.43;0.90;;;27.70;20.60;;;;;;5092686;28;20493;-77
2023/11/04 09:42:18;;;;;;;2.40;0.60;;;28.50;19.20;;;;;;5090918;28;20443;-76
2023/11/04 09:44:45;;;;;;;2.57;0.70;;;28.30;19.00;;;;;;5093164;28;20437;-76
2023/11/04 09:47:12;;;;;;;3.50;1.33;;;27.70;19.10;;;;;;5092326;28;20467;-76
2023/11/04 09:49:41;;;;;;;3.67;0.70;;;27.30;19.70;;;;;;5092694;28;20458;-76
2023/11/04 09:52:10;;;;;;;2.87;1.00;;;27.90;20.50;;;;;;5090336;28;20437;-76
2023/11/04 09:54:42;;;;;;;2.10;0.90;;;28.70;19.50;;;;;;5092792;28;20476;-76
2023/11/04 09:57:09;;;;;;;2.30;1.10;;;29.10;18.30;;;;;;5090501;28;20904;-76
2023/11/04 09:59:37;;;;;;;4.40;1.90;;;28.50;17.70;;;;;;5086531;28;20994;-77
2023/11/04 10:02:10;;;;;;;3.53;2.03;;;27.60;18.10;;;;;;5090482;28;20473;-76
2023/11/04 10:04:37;;;;;;;4.37;3.07;;;28.00;19.00;;;;;;5091375;28;20896;-77
2023/11/04 10:07:06;;;;;;;3.83;2.13;;;28.60;17.80;;;;;;5092122;28;20528;-77
2023/11/04 10:09:35;;;;;;;3.80;2.37;;;28.90;17.30;;;;;;5090659;28;20446;-77
2023/11/04 10:12:03;;;;;;;3.43;2.30;;;29.00;17.40;;;;;;5091628;28;20451;-77
2023/11/04 10:14:30;;;;;;;3.20;1.50;;;29.00;17.90;;;;;;5091750;28;20498;-77
2023/11/04 10:16:57;;;;;;;2.13;0.90;;;29.00;17.70;;;;;;5092610;28;20489;-77
2023/11/04 10:19:25;;;;;;;2.30;0.90;;;28.70;17.70;;;;;;5092087;28;20468;-77
2023/11/04 10:21:53;;;;;;;2.30;0.80;;;28.90;17.50;;;;;;5092216;28;20428;-77
2023/11/04 10:24:22;;;;;;;2.00;0.67;;;29.50;17.50;;;;;;5091988;28;20478;-77
2023/11/04 10:26:51;;;;;;;1.80;0.60;;;30.40;17.20;;;;;;5091533;28;20524;-77
2023/11/04 10:29:19;;;;;;;2.60;0.87;;;32.00;17.10;;;;;;5091965;28;20439;-80
2023/11/04 10:31:48;;;;;;;2.20;0.80;;;33.80;14.80;;;;;;5091446;28;20431;-78
2023/11/04 10:34:16;;;;;;;1.90;0.70;;;35.20;13.60;;;;;;5091929;28;20771;-78
2023/11/04 10:36:47;;;;;;;3.60;0.90;;;36.30;12.70;;;;;;5091885;28;20497;-78
2023/11/04 10:39:16;;;;;;;2.00;0.63;;;37.30;12.00;;;;;;5092409;28;20834;-78
2023/11/04 10:41:54;;;;;;;2.07;0.80;;;37.60;11.10;;;;;;5092230;28;20835;-78
2023/11/04 10:44:26;;;;;;;1.90;0.70;;;37.40;10.80;;;;;;5095045;28;20423;-79
2023/11/04 10:46:57;;;;;;;1.90;0.60;;;36.60;10.00;;;;;;5096142;28;20590;-78
2023/11/04 10:49:29;;;;;;;1.90;0.60;;;35.70;10.20;;;;;;5095706;28;20459;-78
2023/11/04 10:52:03;;;;;;;1.93;0.63;;;34.50;10.80;;;;;;5095882;28;20454;-77
2023/11/04 10:54:36;;;;;;;2.20;0.70;;;33.10;11.90;;;;;;5096049;28;20496;-77
2023/11/04 10:57:15;;;;;;;1.90;0.60;;;31.70;11.90;;;;;;5095504;28;21026;-77
2023/11/04 10:59:53;;;;;;;1.93;0.80;;;30.60;13.00;;;;;;5095807;28;20505;-77
2023/11/04 11:02:21;;;;;;;2.00;0.70;;;30.10;13.80;;;;;;5095468;28;20419;-77
2023/11/04 11:04:50;;;;;;;1.90;0.60;;;30.20;13.70;;;;;;5095293;28;20423;-77
2023/11/04 11:07:19;;;;;;;3.40;0.80;;;30.90;14.40;;;;;;5095505;28;20837;-78
2023/11/04 11:09:48;;;;;;;2.50;0.80;;;32.60;13.40;;;;;;5092685;28;20431;-78
2023/11/04 11:12:20;;;;;;;2.23;0.70;;;34.20;12.40;;;;;;5094397;28;20530;-78
2023/11/04 11:14:47;;;;;;;3.40;1.40;;;35.80;11.00;;;;;;5094295;28;20431;-78
2023/11/04 11:17:14;;;;;;;2.03;0.70;;;37.30;10.70;;;;;;5095319;28;20560;-79
2023/11/04 11:19:51;;;;;;;2.10;0.70;;;38.60;9.50;;;;;;5094562;28;20516;-79
2023/11/04 11:22:23;;;;;;;1.97;0.73;;;39.20;8.60;;;;;;5095578;28;20419;-79
2023/11/04 11:24:53;;;;;;;2.00;0.70;;;39.80;9.20;;;;;;5095328;28;20458;-79
2023/11/04 11:27:22;;;;;;;2.27;0.90;;;40.30;8.10;;;;;;5095180;28;20527;-79
2023/11/04 11:29:50;;;;;;;2.00;0.60;;;40.40;8.10;;;;;;5094746;28;20431;-79
2023/11/04 11:32:17;;;;;;;2.17;0.60;;;40.50;7.80;;;;;;5090916;28;20572;-79
2023/11/04 11:34:51;;;;;;;3.70;1.07;;;40.50;7.40;;;;;;5092436;28;20426;-78
2023/11/04 11:37:20;;;;;;;1.80;0.60;;;39.10;6.90;;;;;;5074676;28;20484;-78
2023/11/04 11:39:47;;;;;;;1.90;0.57;;;36.80;7.40;;;;;;5073887;28;20850;-77
2023/11/04 11:42:14;;;;;;;2.10;0.70;;;34.00;8.60;;;;;;5089187;28;20494;-78
2023/11/04 11:44:43;;;;;;;1.93;0.70;;;31.40;9.90;;;;;;5094326;28;20472;-77
2023/11/04 11:47:13;;;;;;;2.43;0.80;;;29.20;11.10;;;;;;5092986;28;20448;-76
2023/11/04 11:49:40;;;;;;;2.03;0.80;;;27.40;13.20;;;;;;5093187;28;20434;-76
2023/11/04 11:52:07;;;;;;;2.37;0.70;;;26.10;14.40;;;;;;5094642;28;20439;-77
2023/11/04 11:54:34;;;;;;;2.50;0.87;;;24.90;15.40;;;;;;5094317;28;20428;-76
2023/11/04 11:57:02;;;;;;;1.80;0.60;;;23.80;15.10;;;;;;5094346;28;20910;-76
2023/11/04 11:59:34;;;;;;;3.03;0.60;;;22.80;17.10;;;;;;5094499;28;20434;-76
2023/11/04 12:02:03;;;;;;;1.80;0.60;;;21.90;18.00;;;;;;5094194;28;20412;-76
2023/11/04 12:04:30;;;;;;;2.53;0.70;;;21.00;18.20;;;;;;5094492;28;20473;-76
2023/11/04 12:07:00;;;;;;;2.37;0.60;;;20.10;18.60;;;;;;5093935;28;20427;-76
2023/11/04 12:09:28;;;;;;;2.10;0.60;;;19.30;20.30;;;;;;5094031;28;20797;-76
2023/11/04 12:11:57;;;;;;;1.80;0.50;;;18.60;21.60;;;;;;5094040;28;20488;-76
2023/11/04 12:14:24;;;;;;;1.70;0.50;;;18.00;22.30;;;;;;5093813;28;20849;-75
2023/11/04 12:16:54;;;;;;;1.83;0.60;;;17.40;23.00;;;;;;5093982;28;20798;-75
2023/11/04 12:19:22;;;;;;;2.33;0.60;;;16.90;24.20;;;;;;5092597;28;20475;-75
2023/11/04 12:21:50;;;;;;;2.00;0.57;;;16.60;25.00;;;;;;5093547;28;20771;-75
2023/11/04 12:24:18;;;;;;;4.47;1.00;;;16.20;25.90;;;;;;5094209;28;20452;-75
2023/11/04 12:26:45;;;;;;;1.97;0.73;;;15.90;25.70;;;;;;5093669;28;20454;-75
2023/11/04 12:29:12;;;;;;;2.03;0.60;;;15.70;25.60;;;;;;5093355;28;20478;-76
2023/11/04 12:31:40;;;;;;;3.77;1.50;;;15.40;26.50;;;;;;5093187;28;20466;-75
2023/11/04 12:34:08;;;;;;;2.50;0.73;;;15.30;26.70;;;;;;5094202;28;20440;-75
2023/11/04 12:36:36;;;;;;;2.17;0.70;;;15.10;27.30;;;;;;5093772;28;20435;-75
2023/11/04 12:39:04;;;;;;;2.47;1.00;;;15.00;27.80;;;;;;5093745;28;20753;-75
2023/11/04 12:41:31;;;;;;;2.10;0.57;;;15.00;27.30;;;;;;5093786;28;20842;-76
2023/11/04 12:44:01;;;;;;;2.60;0.80;;;15.00;27.80;;;;;;5092927;28;20496;-75
2023/11/04 12:46:29;;;;;;;2.40;0.90;;;15.20;28.10;;;;;;5093630;28;20427;-76
2023/11/04 12:48:57;;;;;;;2.43;0.80;;;15.50;26.30;;;;;;5093020;28;20539;-76
2023/11/04 12:51:24;;;;;;;2.17;0.80;;;15.60;26.50;;;;;;5093578;28;20522;-76
2023/11/04 12:53:53;;;;;;;2.20;0.60;;;16.10;26.50;;;;;;5093096;28;20447;-75
2023/11/04 12:56:20;;;;;;;2.70;0.80;;;16.40;24.70;;;;;;5093303;28;20932;-75